Pagrindinis puslapis
METAR-TAF:

METAR-TAF

Oro uostai :

Funšalis, Madeiros salos, Portugalija

platuma: 32-41-52N, ilguma: 016-46-28W, Aukštis: 59 m

Dabartinis oras

Ataskaita buvo paskelbta 25 minutes, ne 21:00 UTC
Vėjas 15 kt iš Šiaurės
Temperatūra 19°C
Drėgmė 78%
Slėgis 1014 hPa
Matomumas 10 km arba daugiau
Išsisklaidę debesys ne aukštis 1500 ft

METAR: LPMA 302100Z 36015KT 9999 SCT015 19/15 Q1014

Laikas: 22:25 (21:25 UTC)

Prognozė

Ataskaita buvo paskelbta 4 valandos ir 25 minutes, ne 17:00 UTC
Prognozė galioja nuo 30 metu 18 UTC su 31 metu 18 UTC
Vėjas 15 kt iš Šiaurės
Matomumas 10 km arba daugiau
Išsisklaidę debesys ne aukštis 1500 ft
Laikinai
nuo 30 metu 18 UTC su 31 metu 18 UTC
Su prošvaistėmis ne aukštis 1500 ft
Tapsmas
nuo 30 metu 19 UTC su 30 metu 21 UTC
Vėjas 10 kt iš Šiaurės/Šiaurės Rytų
Tapsmas
nuo 31 metu 14 UTC su 31 metu 17 UTC
Vėjas 5 kt nuo kintamojo kryptimis

TAF: LPMA 301700Z 3018/3118 01015KT 9999 SCT015 TEMPO 3018/3118 BKN015 BECMG 3019/3021 02010KT BECMG 3114/3117 VRB05KT

Orai ataskaitas ir orų prognozės (METAR, TAF).

turimą stotys yra geltonos ir raudonos taškus žemėlapyje.

Perkelti pele per norėdami pamatyti stoties vardą.

Tada spustelėkite, norėdami matyti oro stebėjimo ir prognozės.

Norėdami pakeisti žemėlapį: spustelėkite ant žalios mygtukų su juodo kryžiaus žemyn,; žalią mygtuką su brūkšneliu, jei norite nutolinti; arba žalių rodyklių gretimoms žemėlapius.


METAR-TAF: